PWSweather.com
Personal Weather Stations
Station Observations
KV9EWX
Winnebago, Il, Winnebago, IL 61088

Winnebago, IlWinnebago, IL 61088

Lat: 42.261175, Lon: -89.236369

Elevation: 892

Station Type: Lacrosse ws-2811

Latest ConditionsUpdated 5:21:05 PM CDT Wednesday, Oct 22, 2014
Currently Today's Max Today's Min Today's Average
Temperature 55.0°F12.8°C 64.6°F18.1°C 30.1°F-1.1°C 43.4°F6.3°C
Dew Point 37.2°F2.9°C 45.4°F7.4°C 27.4°F-2.6°C 35.1°F1.7°C
Winds 2.5 mph S4.0 kmh S 6.6 mph SE10.6 kmh SE - 1.7 mph 2.7 kmh
Wind Gusts 4.4 mph7.1 kmh 12.9 mph20.8 kmh - -
Humidity 51% 92% 43% 76%
Pressure 29.81 in1009.5 mb 29.93 in1013.5 mb 29.81 in1009.5 mb -
Hour Temp Dew Point Humidity Winds Wind Gusts Pressure Precip Precip Rate Daily Precip Total
05:21 PM 55.0°F12.8°C 37.2°F2.9°C 51% 2.5 mph S4.0 kmh S 4.4 mph7.1 kmh 29.81 in1009.5 mb 0.00 in0.0 mm 0.00 in/hr0.0 mm/hr 0.00 in0.0 mm
05:16 PM 55.2°F12.9°C 37.4°F3.0°C 51% 1.3 mph SSE2.1 kmh SSE 8.6 mph13.8 kmh 29.81 in1009.5 mb 0.00 in0.0 mm 0.00 in/hr0.0 mm/hr 0.00 in0.0 mm
05:11 PM 55.5°F13.1°C 37.1°F2.8°C 50% 3.2 mph SSE5.1 kmh SSE 10.5 mph16.9 kmh 29.82 in1009.8 mb 0.00 in0.0 mm 0.00 in/hr0.0 mm/hr 0.00 in0.0 mm
05:06 PM 55.7°F13.2°C 37.3°F2.9°C 50% 5.5 mph S8.9 kmh S 10.5 mph16.9 kmh 29.82 in1009.8 mb 0.00 in0.0 mm 0.00 in/hr0.0 mm/hr 0.00 in0.0 mm
05:01 PM 55.9°F13.3°C 37.5°F3.1°C 50% 2.6 mph SE4.2 kmh SE 10.2 mph16.4 kmh 29.82 in1009.8 mb 0.00 in0.0 mm 0.00 in/hr0.0 mm/hr 0.00 in0.0 mm
04:56 PM 56.1°F13.4°C 37.7°F3.2°C 50% 3.6 mph SE5.8 kmh SE 10.2 mph16.4 kmh 29.82 in1009.8 mb 0.00 in0.0 mm 0.00 in/hr0.0 mm/hr 0.00 in0.0 mm
04:51 PM 56.3°F13.5°C 37.9°F3.3°C 50% 4.4 mph SE7.1 kmh SE 8.2 mph13.2 kmh 29.82 in1009.8 mb 0.00 in0.0 mm 0.00 in/hr0.0 mm/hr 0.00 in0.0 mm
04:45 PM 56.4°F13.6°C 37.9°F3.3°C 50% 4.4 mph SE7.1 kmh SE 11.0 mph17.7 kmh 29.82 in1009.8 mb 0.00 in0.0 mm 0.00 in/hr0.0 mm/hr 0.00 in0.0 mm
04:41 PM 56.7°F13.7°C 37.8°F3.2°C 49% 5.5 mph SE8.9 kmh SE 11.0 mph17.7 kmh 29.82 in1009.8 mb 0.00 in0.0 mm 0.00 in/hr0.0 mm/hr 0.00 in0.0 mm
04:36 PM 56.9°F13.8°C 38.5°F3.6°C 50% 1.2 mph SE1.9 kmh SE 8.9 mph14.3 kmh 29.82 in1009.8 mb 0.00 in0.0 mm 0.00 in/hr0.0 mm/hr 0.00 in0.0 mm
04:31 PM 57.1°F13.9°C 38.1°F3.4°C 49% 3.8 mph E6.1 kmh E 8.9 mph14.3 kmh 29.82 in1009.8 mb 0.00 in0.0 mm 0.00 in/hr0.0 mm/hr 0.00 in0.0 mm
04:25 PM 57.4°F14.1°C 38.4°F3.6°C 49% 3.6 mph SE5.8 kmh SE 7.0 mph11.3 kmh 29.82 in1009.8 mb 0.00 in0.0 mm 0.00 in/hr0.0 mm/hr 0.00 in0.0 mm
04:20 PM 57.6°F14.2°C 38.0°F3.3°C 48% 3.4 mph S5.5 kmh S 7.0 mph11.3 kmh 29.82 in1009.8 mb 0.00 in0.0 mm 0.00 in/hr0.0 mm/hr 0.00 in0.0 mm
04:16 PM 58.3°F14.6°C 38.7°F3.7°C 48% 3.7 mph S6.0 kmh S 8.2 mph13.2 kmh 29.83 in1010.2 mb 0.00 in0.0 mm 0.00 in/hr0.0 mm/hr 0.00 in0.0 mm
04:11 PM 58.7°F14.8°C 38.5°F3.6°C 47% 3.4 mph SE5.5 kmh SE 8.9 mph14.3 kmh 29.83 in1010.2 mb 0.00 in0.0 mm 0.00 in/hr0.0 mm/hr 0.00 in0.0 mm
04:05 PM 59.4°F15.2°C 38.5°F3.6°C 46% 4.2 mph S6.8 kmh S 8.9 mph14.3 kmh 29.83 in1010.2 mb 0.00 in0.0 mm 0.00 in/hr0.0 mm/hr 0.00 in0.0 mm
04:00 PM 59.8°F15.4°C 39.4°F4.1°C 47% 1.1 mph SSE1.8 kmh SSE 5.4 mph8.7 kmh 29.83 in1010.2 mb 0.00 in0.0 mm 0.00 in/hr0.0 mm/hr 0.00 in0.0 mm
03:56 PM 60.4°F15.8°C 39.5°F4.2°C 46% 2.6 mph SSE4.2 kmh SSE 9.4 mph15.1 kmh 29.83 in1010.2 mb 0.00 in0.0 mm 0.00 in/hr0.0 mm/hr 0.00 in0.0 mm
03:50 PM 61.1°F16.2°C 39.5°F4.2°C 45% 4.9 mph SE7.9 kmh SE 9.4 mph15.1 kmh 29.83 in1010.2 mb 0.00 in0.0 mm 0.00 in/hr0.0 mm/hr 0.00 in0.0 mm
03:45 PM 62.2°F16.8°C 40.5°F4.7°C 45% 2.2 mph SSE3.5 kmh SSE 8.9 mph14.3 kmh 29.83 in1010.2 mb 0.00 in0.0 mm 0.00 in/hr0.0 mm/hr 0.00 in0.0 mm
03:40 PM 62.9°F17.2°C 40.5°F4.7°C 44% 2.9 mph SE4.7 kmh SE 7.9 mph12.7 kmh 29.83 in1010.2 mb 0.00 in0.0 mm 0.00 in/hr0.0 mm/hr 0.00 in0.0 mm
03:35 PM 63.3°F17.4°C 41.0°F5.0°C 44% 2.7 mph SE4.3 kmh SE 12.6 mph20.3 kmh 29.84 in1010.5 mb 0.00 in0.0 mm 0.00 in/hr0.0 mm/hr 0.00 in0.0 mm
03:30 PM 64.1°F17.8°C 41.1°F5.1°C 43% 4.2 mph S6.8 kmh S 12.6 mph20.3 kmh 29.84 in1010.5 mb 0.00 in0.0 mm 0.00 in/hr0.0 mm/hr 0.00 in0.0 mm
03:25 PM 64.6°F18.1°C 42.1°F5.6°C 44% 5.1 mph SSE8.2 kmh SSE 8.9 mph14.3 kmh 29.84 in1010.5 mb 0.00 in0.0 mm 0.00 in/hr0.0 mm/hr 0.00 in0.0 mm
03:20 PM 64.6°F18.1°C 43.3°F6.3°C 46% 1.6 mph SSE2.6 kmh SSE 7.5 mph12.1 kmh 29.84 in1010.5 mb 0.00 in0.0 mm 0.00 in/hr0.0 mm/hr 0.00 in0.0 mm
03:15 PM 64.4°F18.0°C 42.5°F5.8°C 45% 3.3 mph SSE5.3 kmh SSE 9.4 mph15.1 kmh 29.84 in1010.5 mb 0.00 in0.0 mm 0.00 in/hr0.0 mm/hr 0.00 in0.0 mm
03:10 PM 64.2°F17.9°C 43.0°F6.1°C 46% 3.3 mph SE5.3 kmh SE 9.4 mph15.1 kmh 29.84 in1010.5 mb 0.00 in0.0 mm 0.00 in/hr0.0 mm/hr 0.00 in0.0 mm
03:05 PM 64.1°F17.8°C 42.9°F6.1°C 46% 2.1 mph SE3.4 kmh SE 9.8 mph15.8 kmh 29.84 in1010.5 mb 0.00 in0.0 mm 0.00 in/hr0.0 mm/hr 0.00 in0.0 mm
03:00 PM 64.1°F17.8°C 42.3°F5.7°C 45% 3.9 mph SSE6.3 kmh SSE 9.8 mph15.8 kmh 29.85 in1010.8 mb 0.00 in0.0 mm 0.00 in/hr0.0 mm/hr 0.00 in0.0 mm
02:55 PM 64.2°F17.9°C 43.0°F6.1°C 46% 4.2 mph SE6.8 kmh SE 8.6 mph13.8 kmh 29.85 in1010.8 mb 0.00 in0.0 mm 0.00 in/hr0.0 mm/hr 0.00 in0.0 mm
02:50 PM 64.2°F17.9°C 43.0°F6.1°C 46% 2.1 mph E3.4 kmh E 7.5 mph12.1 kmh 29.85 in1010.8 mb 0.00 in0.0 mm 0.00 in/hr0.0 mm/hr 0.00 in0.0 mm
02:45 PM 63.7°F17.6°C 43.1°F6.2°C 47% 4.4 mph SE7.1 kmh SE 9.4 mph15.1 kmh 29.85 in1010.8 mb 0.00 in0.0 mm 0.00 in/hr0.0 mm/hr 0.00 in0.0 mm
02:40 PM 63.5°F17.5°C 42.9°F6.1°C 47% 3.7 mph SSW6.0 kmh SSW 11.0 mph17.7 kmh 29.85 in1010.8 mb 0.00 in0.0 mm 0.00 in/hr0.0 mm/hr 0.00 in0.0 mm
02:35 PM 63.2°F17.3°C 42.1°F5.6°C 46% 5.5 mph SE8.9 kmh SE 11.0 mph17.7 kmh 29.85 in1010.8 mb 0.00 in0.0 mm 0.00 in/hr0.0 mm/hr 0.00 in0.0 mm
02:30 PM 63.3°F17.4°C 42.2°F5.7°C 46% 2.8 mph S4.5 kmh S 8.2 mph13.2 kmh 29.86 in1011.2 mb 0.00 in0.0 mm 0.00 in/hr0.0 mm/hr 0.00 in0.0 mm
02:25 PM 63.3°F17.4°C 42.7°F5.9°C 47% 5.1 mph S8.2 kmh S 10.2 mph16.4 kmh 29.86 in1011.2 mb 0.00 in0.0 mm 0.00 in/hr0.0 mm/hr 0.00 in0.0 mm
02:20 PM 63.9°F17.7°C 42.7°F5.9°C 46% 6.4 mph S10.3 kmh S 10.2 mph16.4 kmh 29.86 in1011.2 mb 0.00 in0.0 mm 0.00 in/hr0.0 mm/hr 0.00 in0.0 mm
02:15 PM 63.9°F17.7°C 43.8°F6.6°C 48% 4.0 mph S6.4 kmh S 8.2 mph13.2 kmh 29.86 in1011.2 mb 0.00 in0.0 mm 0.00 in/hr0.0 mm/hr 0.00 in0.0 mm
02:10 PM 63.3°F17.4°C 43.9°F6.6°C 49% 2.9 mph SE4.7 kmh SE 8.2 mph13.2 kmh 29.86 in1011.2 mb 0.00 in0.0 mm 0.00 in/hr0.0 mm/hr 0.00 in0.0 mm
02:05 PM 63.3°F17.4°C 43.9°F6.6°C 49% 2.8 mph S4.5 kmh S 8.2 mph13.2 kmh 29.86 in1011.2 mb 0.00 in0.0 mm 0.00 in/hr0.0 mm/hr 0.00 in0.0 mm
02:00 PM 63.2°F17.3°C 44.3°F6.8°C 50% 2.0 mph S3.2 kmh S 8.2 mph13.2 kmh 29.87 in1011.5 mb 0.00 in0.0 mm 0.00 in/hr0.0 mm/hr 0.00 in0.0 mm
01:55 PM 63.2°F17.3°C 44.3°F6.8°C 50% 2.4 mph S3.9 kmh S 8.2 mph13.2 kmh 29.87 in1011.5 mb 0.00 in0.0 mm 0.00 in/hr0.0 mm/hr 0.00 in0.0 mm
01:50 PM 63.5°F17.5°C 44.6°F7.0°C 50% 2.0 mph SSW3.2 kmh SSW 5.4 mph8.7 kmh 29.87 in1011.5 mb 0.00 in0.0 mm 0.00 in/hr0.0 mm/hr 0.00 in0.0 mm
01:45 PM 63.2°F17.3°C 45.4°F7.4°C 52% 1.0 mph S1.6 kmh S 7.5 mph12.1 kmh 29.87 in1011.5 mb 0.00 in0.0 mm 0.00 in/hr0.0 mm/hr 0.00 in0.0 mm
01:40 PM 62.9°F17.2°C 45.0°F7.2°C 52% 2.4 mph ESE3.9 kmh ESE 7.5 mph12.1 kmh 29.87 in1011.5 mb 0.00 in0.0 mm 0.00 in/hr0.0 mm/hr 0.00 in0.0 mm
01:35 PM 62.5°F16.9°C 44.7°F7.1°C 52% 3.0 mph SSE4.8 kmh SSE 6.7 mph10.8 kmh 29.88 in1011.9 mb 0.00 in0.0 mm 0.00 in/hr0.0 mm/hr 0.00 in0.0 mm
01:30 PM 62.2°F16.8°C 44.4°F6.9°C 52% 4.5 mph S7.2 kmh S 6.7 mph10.8 kmh 29.88 in1011.9 mb 0.00 in0.0 mm 0.00 in/hr0.0 mm/hr 0.00 in0.0 mm
01:25 PM 61.8°F16.6°C 45.0°F7.2°C 54% 0.9 mph WSW1.4 kmh WSW 6.7 mph10.8 kmh 29.88 in1011.9 mb 0.00 in0.0 mm 0.00 in/hr0.0 mm/hr 0.00 in0.0 mm
01:20 PM 60.9°F16.1°C 43.7°F6.5°C 53% 1.1 mph SSE1.8 kmh SSE 8.9 mph14.3 kmh 29.89 in1012.2 mb 0.00 in0.0 mm 0.00 in/hr0.0 mm/hr 0.00 in0.0 mm
01:15 PM 60.4°F15.8°C 42.8°F6.0°C 52% 4.3 mph SE6.9 kmh SE 9.8 mph15.8 kmh 29.89 in1012.2 mb 0.00 in0.0 mm 0.00 in/hr0.0 mm/hr 0.00 in0.0 mm
01:10 PM 60.6°F15.9°C 42.9°F6.1°C 52% 4.9 mph S7.9 kmh S 9.8 mph15.8 kmh 29.89 in1012.2 mb 0.00 in0.0 mm 0.00 in/hr0.0 mm/hr 0.00 in0.0 mm
01:05 PM 60.7°F15.9°C 43.5°F6.4°C 53% 4.0 mph SE6.4 kmh SE 12.1 mph19.5 kmh 29.89 in1012.2 mb 0.00 in0.0 mm 0.00 in/hr0.0 mm/hr 0.00 in0.0 mm
01:00 PM 60.6°F15.9°C 44.4°F6.9°C 55% 6.3 mph SSE10.1 kmh SSE 12.1 mph19.5 kmh 29.89 in1012.2 mb 0.00 in0.0 mm 0.00 in/hr0.0 mm/hr 0.00 in0.0 mm
12:55 PM 59.8°F15.4°C 44.1°F6.7°C 56% 2.3 mph ESE3.7 kmh ESE 8.2 mph13.2 kmh 29.89 in1012.2 mb 0.00 in0.0 mm 0.00 in/hr0.0 mm/hr 0.00 in0.0 mm
12:50 PM 59.2°F15.1°C 43.6°F6.4°C 56% 3.8 mph S6.1 kmh S 7.9 mph12.7 kmh 29.89 in1012.2 mb 0.00 in0.0 mm 0.00 in/hr0.0 mm/hr 0.00 in0.0 mm
12:45 PM 58.7°F14.8°C 44.1°F6.7°C 58% 3.2 mph S5.1 kmh S 11.0 mph17.7 kmh 29.90 in1012.5 mb 0.00 in0.0 mm 0.00 in/hr0.0 mm/hr 0.00 in0.0 mm
12:40 PM 58.0°F14.4°C 43.0°F6.1°C 57% 4.5 mph S7.2 kmh S 11.0 mph17.7 kmh 29.90 in1012.5 mb 0.00 in0.0 mm 0.00 in/hr0.0 mm/hr 0.00 in0.0 mm
12:35 PM 57.8°F14.3°C 42.8°F6.0°C 57% 5.3 mph SSE8.5 kmh SSE 11.0 mph17.7 kmh 29.90 in1012.5 mb 0.00 in0.0 mm 0.00 in/hr0.0 mm/hr 0.00 in0.0 mm
12:30 PM 57.4°F14.1°C 43.8°F6.6°C 60% 3.3 mph S5.3 kmh S 11.4 mph18.3 kmh 29.90 in1012.5 mb 0.00 in0.0 mm 0.00 in/hr0.0 mm/hr 0.00 in0.0 mm
12:25 PM 56.9°F13.8°C 42.4°F5.8°C 58% 6.6 mph SSE10.6 kmh SSE 12.9 mph20.8 kmh 29.90 in1012.5 mb 0.00 in0.0 mm 0.00 in/hr0.0 mm/hr 0.00 in0.0 mm
12:20 PM 56.6°F13.7°C 42.0°F5.6°C 58% 6.2 mph S10.0 kmh S 12.9 mph20.8 kmh 29.91 in1012.9 mb 0.00 in0.0 mm 0.00 in/hr0.0 mm/hr 0.00 in0.0 mm
12:15 PM 56.1°F13.4°C 42.9°F6.1°C 61% 2.6 mph SSW4.2 kmh SSW 11.0 mph17.7 kmh 29.91 in1012.9 mb 0.00 in0.0 mm 0.00 in/hr0.0 mm/hr 0.00 in0.0 mm
12:10 PM 55.5°F13.1°C 43.2°F6.2°C 63% 6.6 mph SE10.6 kmh SE 11.0 mph17.7 kmh 29.91 in1012.9 mb 0.00 in0.0 mm 0.00 in/hr0.0 mm/hr 0.00 in0.0 mm
12:05 PM 54.8°F12.7°C 42.6°F5.9°C 63% 3.6 mph SE5.8 kmh SE 11.0 mph17.7 kmh 29.91 in1012.9 mb 0.00 in0.0 mm 0.00 in/hr0.0 mm/hr 0.00 in0.0 mm
12:00 PM 54.3°F12.4°C 42.5°F5.8°C 64% 5.5 mph S8.9 kmh S 11.0 mph17.7 kmh 29.91 in1012.9 mb 0.00 in0.0 mm 0.00 in/hr0.0 mm/hr 0.00 in0.0 mm
11:55 AM 54.1°F12.3°C 42.3°F5.7°C 64% 4.4 mph S7.1 kmh S 8.6 mph13.8 kmh 29.91 in1012.9 mb 0.00 in0.0 mm 0.00 in/hr0.0 mm/hr 0.00 in0.0 mm
11:50 AM 53.6°F12.0°C 41.9°F5.5°C 64% 6.0 mph S9.7 kmh S 9.8 mph15.8 kmh 29.91 in1012.9 mb 0.00 in0.0 mm 0.00 in/hr0.0 mm/hr 0.00 in0.0 mm
11:45 AM 53.1°F11.7°C 42.1°F5.6°C 66% 5.1 mph SSE8.2 kmh SSE 9.8 mph15.8 kmh 29.91 in1012.9 mb 0.00 in0.0 mm 0.00 in/hr0.0 mm/hr 0.00 in0.0 mm
11:40 AM 52.6°F11.4°C 42.0°F5.6°C 67% 4.3 mph SSE6.9 kmh SSE 9.4 mph15.1 kmh 29.91 in1012.9 mb 0.00 in0.0 mm 0.00 in/hr0.0 mm/hr 0.00 in0.0 mm
11:35 AM 52.2°F11.2°C 42.1°F5.6°C 68% 4.7 mph S7.6 kmh S 11.0 mph17.7 kmh 29.92 in1013.2 mb 0.00 in0.0 mm 0.00 in/hr0.0 mm/hr 0.00 in0.0 mm
11:30 AM 52.0°F11.1°C 42.2°F5.7°C 69% 5.4 mph S8.7 kmh S 11.0 mph17.7 kmh 29.92 in1013.2 mb 0.00 in0.0 mm 0.00 in/hr0.0 mm/hr 0.00 in0.0 mm
11:25 AM 51.9°F11.1°C 42.2°F5.7°C 69% 5.2 mph SE8.4 kmh SE 11.0 mph17.7 kmh 29.92 in1013.2 mb 0.00 in0.0 mm 0.00 in/hr0.0 mm/hr 0.00 in0.0 mm
11:20 AM 51.9°F11.1°C 42.2°F5.7°C 69% 4.2 mph S6.8 kmh S 11.4 mph18.3 kmh 29.92 in1013.2 mb 0.00 in0.0 mm 0.00 in/hr0.0 mm/hr 0.00 in0.0 mm
11:15 AM 51.5°F10.8°C 41.8°F5.4°C 69% 4.5 mph SSE7.2 kmh SSE 11.4 mph18.3 kmh 29.92 in1013.2 mb 0.00 in0.0 mm 0.00 in/hr0.0 mm/hr 0.00 in0.0 mm
11:10 AM 51.3°F10.7°C 42.7°F5.9°C 72% 4.9 mph S7.9 kmh S 8.6 mph13.8 kmh 29.92 in1013.2 mb 0.00 in0.0 mm 0.00 in/hr0.0 mm/hr 0.00 in0.0 mm
11:05 AM 51.1°F10.6°C 42.9°F6.1°C 73% 3.2 mph SE5.1 kmh SE 11.0 mph17.7 kmh 29.92 in1013.2 mb 0.00 in0.0 mm 0.00 in/hr0.0 mm/hr 0.00 in0.0 mm
11:00 AM 50.8°F10.4°C 42.9°F6.1°C 74% 4.0 mph SE6.4 kmh SE 11.0 mph17.7 kmh 29.92 in1013.2 mb 0.00 in0.0 mm 0.00 in/hr0.0 mm/hr 0.00 in0.0 mm
10:55 AM 50.4°F10.2°C 42.5°F5.8°C 74% 4.4 mph SSE7.1 kmh SSE 11.0 mph17.7 kmh 29.92 in1013.2 mb 0.00 in0.0 mm 0.00 in/hr0.0 mm/hr 0.00 in0.0 mm
10:50 AM 50.2°F10.1°C 43.0°F6.1°C 76% 5.0 mph SSE8.0 kmh SSE 11.0 mph17.7 kmh 29.92 in1013.2 mb 0.00 in0.0 mm 0.00 in/hr0.0 mm/hr 0.00 in0.0 mm
10:45 AM 50.1°F10.1°C 42.9°F6.1°C 76% 4.5 mph S7.2 kmh S 10.5 mph16.9 kmh 29.92 in1013.2 mb 0.00 in0.0 mm 0.00 in/hr0.0 mm/hr 0.00 in0.0 mm
10:40 AM 50.0°F10.0°C 43.7°F6.5°C 79% 2.8 mph SE4.5 kmh SE 9.4 mph15.1 kmh 29.92 in1013.2 mb 0.00 in0.0 mm 0.00 in/hr0.0 mm/hr 0.00 in0.0 mm
10:35 AM 49.6°F9.8°C 43.7°F6.5°C 80% 1.9 mph ESE3.1 kmh ESE 6.7 mph10.8 kmh 29.92 in1013.2 mb 0.00 in0.0 mm 0.00 in/hr0.0 mm/hr 0.00 in0.0 mm
10:30 AM 49.3°F9.6°C 43.4°F6.3°C 80% 2.5 mph S4.0 kmh S 6.0 mph9.7 kmh 29.92 in1013.2 mb 0.00 in0.0 mm 0.00 in/hr0.0 mm/hr 0.00 in0.0 mm
10:25 AM 48.9°F9.4°C 44.0°F6.7°C 83% 2.6 mph ESE4.2 kmh ESE 6.7 mph10.8 kmh 29.92 in1013.2 mb 0.00 in0.0 mm 0.00 in/hr0.0 mm/hr 0.00 in0.0 mm
10:20 AM 48.4°F9.1°C 44.1°F6.7°C 85% 2.4 mph SE3.9 kmh SE 6.7 mph10.8 kmh 29.92 in1013.2 mb 0.00 in0.0 mm 0.00 in/hr0.0 mm/hr 0.00 in0.0 mm
10:15 AM 47.8°F8.8°C 43.2°F6.2°C 84% 0.7 mph S1.1 kmh S 5.1 mph8.2 kmh 29.92 in1013.2 mb 0.00 in0.0 mm 0.00 in/hr0.0 mm/hr 0.00 in0.0 mm
10:10 AM 47.5°F8.6°C 43.2°F6.2°C 85% 1.4 mph ESE2.3 kmh ESE 5.1 mph8.2 kmh 29.92 in1013.2 mb 0.00 in0.0 mm 0.00 in/hr0.0 mm/hr 0.00 in0.0 mm
10:05 AM 47.1°F8.4°C 42.9°F6.1°C 85% 0.8 mph E1.3 kmh E 2.3 mph3.7 kmh 29.92 in1013.2 mb 0.00 in0.0 mm 0.00 in/hr0.0 mm/hr 0.00 in0.0 mm
10:00 AM 46.8°F8.2°C 42.5°F5.8°C 85% 1.0 mph E1.6 kmh E 2.8 mph4.5 kmh 29.92 in1013.2 mb 0.00 in0.0 mm 0.00 in/hr0.0 mm/hr 0.00 in0.0 mm
09:55 AM 46.5°F8.1°C 42.2°F5.7°C 85% 1.4 mph E2.3 kmh E 3.5 mph5.6 kmh 29.92 in1013.2 mb 0.00 in0.0 mm 0.00 in/hr0.0 mm/hr 0.00 in0.0 mm
09:50 AM 46.5°F8.1°C 42.2°F5.7°C 85% 1.5 mph SE2.4 kmh SE 3.9 mph6.3 kmh 29.92 in1013.2 mb 0.00 in0.0 mm 0.00 in/hr0.0 mm/hr 0.00 in0.0 mm
09:45 AM 46.3°F7.9°C 42.6°F5.9°C 87% 1.5 mph E2.4 kmh E 3.9 mph6.3 kmh 29.92 in1013.2 mb 0.00 in0.0 mm 0.00 in/hr0.0 mm/hr 0.00 in0.0 mm
09:40 AM 45.8°F7.7°C 42.1°F5.6°C 87% 0.6 mph ESE1.0 kmh ESE 4.4 mph7.1 kmh 29.92 in1013.2 mb 0.00 in0.0 mm 0.00 in/hr0.0 mm/hr 0.00 in0.0 mm
09:35 AM 45.8°F7.7°C 42.4°F5.8°C 88% 1.9 mph E3.1 kmh E 4.4 mph7.1 kmh 29.92 in1013.2 mb 0.00 in0.0 mm 0.00 in/hr0.0 mm/hr 0.00 in0.0 mm
09:30 AM 44.9°F7.2°C 41.8°F5.4°C 89% 1.2 mph ESE1.9 kmh ESE 4.4 mph7.1 kmh 29.92 in1013.2 mb 0.00 in0.0 mm 0.00 in/hr0.0 mm/hr 0.00 in0.0 mm
09:25 AM 43.5°F6.4°C 41.0°F5.0°C 91% 0.5 mph E0.8 kmh E 1.2 mph1.9 kmh 29.92 in1013.2 mb 0.00 in0.0 mm 0.00 in/hr0.0 mm/hr 0.00 in0.0 mm
09:20 AM 42.6°F5.9°C 39.8°F4.3°C 90% 0.5 mph ESE0.8 kmh ESE 0.7 mph1.1 kmh 29.92 in1013.2 mb 0.00 in0.0 mm 0.00 in/hr0.0 mm/hr 0.00 in0.0 mm
09:15 AM 41.7°F5.4°C 39.0°F3.9°C 90% 0.3 mph E0.5 kmh E 0.7 mph1.1 kmh 29.92 in1013.2 mb 0.00 in0.0 mm 0.00 in/hr0.0 mm/hr 0.00 in0.0 mm
09:10 AM 40.8°F4.9°C 38.4°F3.6°C 91% 0.5 mph E0.8 kmh E 0.7 mph1.1 kmh 29.92 in1013.2 mb 0.00 in0.0 mm 0.00 in/hr0.0 mm/hr 0.00 in0.0 mm
09:05 AM 39.7°F4.3°C 37.5°F3.1°C 92% 0.3 mph ENE0.5 kmh ENE 0.7 mph1.1 kmh 29.92 in1013.2 mb 0.00 in0.0 mm 0.00 in/hr0.0 mm/hr 0.00 in0.0 mm
09:00 AM 38.8°F3.8°C 36.6°F2.6°C 92% 0.5 mph NE0.8 kmh NE 1.2 mph1.9 kmh 29.92 in1013.2 mb 0.00 in0.0 mm 0.00 in/hr0.0 mm/hr 0.00 in0.0 mm
08:55 AM 37.3°F2.9°C 35.2°F1.8°C 92% 0.4 mph NE0.6 kmh NE 1.6 mph2.6 kmh 29.93 in1013.5 mb 0.00 in0.0 mm 0.00 in/hr0.0 mm/hr 0.00 in0.0 mm
08:50 AM 35.4°F1.9°C 33.3°F0.7°C 92% 0.8 mph NNE1.3 kmh NNE 1.6 mph2.6 kmh 29.92 in1013.2 mb 0.00 in0.0 mm 0.00 in/hr0.0 mm/hr 0.00 in0.0 mm
08:45 AM 33.9°F1.1°C 31.7°F-0.2°C 92% 0.4 mph NNE0.6 kmh NNE 1.9 mph3.1 kmh 29.93 in1013.5 mb 0.00 in0.0 mm 0.00 in/hr0.0 mm/hr 0.00 in0.0 mm
08:40 AM 33.4°F0.8°C 31.0°F-0.6°C 91% 0.8 mph N1.3 kmh N 1.9 mph3.1 kmh 29.93 in1013.5 mb 0.00 in0.0 mm 0.00 in/hr0.0 mm/hr 0.00 in0.0 mm
08:35 AM 33.0°F0.6°C 30.9°F-0.6°C 92% 1.0 mph N1.6 kmh N 1.9 mph3.1 kmh 29.92 in1013.2 mb 0.00 in0.0 mm 0.00 in/hr0.0 mm/hr 0.00 in0.0 mm
08:30 AM 32.8°F0.4°C 30.7°F-0.7°C 92% 0.6 mph N1.0 kmh N 2.3 mph3.7 kmh 29.93 in1013.5 mb 0.00 in0.0 mm 0.00 in/hr0.0 mm/hr 0.00 in0.0 mm
08:25 AM 32.7°F0.4°C 30.6°F-0.8°C 92% 1.4 mph NNE2.3 kmh NNE 2.3 mph3.7 kmh 29.92 in1013.2 mb 0.00 in0.0 mm 0.00 in/hr0.0 mm/hr 0.00 in0.0 mm
08:20 AM 32.3°F0.2°C 30.2°F-1.0°C 92% 0.9 mph NE1.4 kmh NE 1.9 mph3.1 kmh 29.92 in1013.2 mb 0.00 in0.0 mm 0.00 in/hr0.0 mm/hr 0.00 in0.0 mm
08:15 AM 31.8°F-0.1°C 29.7°F-1.3°C 92% 0.8 mph N1.3 kmh N 1.6 mph2.6 kmh 29.92 in1013.2 mb 0.00 in0.0 mm 0.00 in/hr0.0 mm/hr 0.00 in0.0 mm
08:10 AM 30.9°F-0.6°C 28.6°F-1.9°C 91% 0.6 mph 1.0 kmh 0.7 mph1.1 kmh 29.92 in1013.2 mb 0.00 in0.0 mm 0.00 in/hr0.0 mm/hr 0.00 in0.0 mm
08:05 AM 30.4°F-0.9°C 28.0°F-2.2°C 91% 0.3 mph NNE0.5 kmh NNE 0.3 mph0.5 kmh 29.92 in1013.2 mb 0.00 in0.0 mm 0.00 in/hr0.0 mm/hr 0.00 in0.0 mm
08:00 AM 30.4°F-0.9°C 28.0°F-2.2°C 91% Calm Calm 0.3 mph0.5 kmh 29.92 in1013.2 mb 0.00 in0.0 mm 0.00 in/hr0.0 mm/hr 0.00 in0.0 mm
07:55 AM 30.2°F-1.0°C 27.8°F-2.3°C 91% 0.3 mph 0.5 kmh 0.3 mph0.5 kmh 29.92 in1013.2 mb 0.00 in0.0 mm 0.00 in/hr0.0 mm/hr 0.00 in0.0 mm
07:50 AM 30.2°F-1.0°C 27.8°F-2.3°C 91% Calm Calm -- 29.91 in1012.9 mb 0.00 in0.0 mm 0.00 in/hr0.0 mm/hr 0.00 in0.0 mm
07:45 AM 30.4°F-0.9°C 28.0°F-2.2°C 91% Calm Calm -- 29.91 in1012.9 mb 0.00 in0.0 mm 0.00 in/hr0.0 mm/hr 0.00 in0.0 mm
07:40 AM 30.4°F-0.9°C 28.0°F-2.2°C 91% Calm Calm -- 29.91 in1012.9 mb 0.00 in0.0 mm 0.00 in/hr0.0 mm/hr 0.00 in0.0 mm
07:35 AM 30.4°F-0.9°C 28.0°F-2.2°C 91% Calm Calm 0.3 mph0.5 kmh 29.91 in1012.9 mb 0.00 in0.0 mm 0.00 in/hr0.0 mm/hr 0.00 in0.0 mm
07:30 AM 30.4°F-0.9°C 28.0°F-2.2°C 91% Calm Calm 0.3 mph0.5 kmh 29.91 in1012.9 mb 0.00 in0.0 mm 0.00 in/hr0.0 mm/hr 0.00 in0.0 mm
07:25 AM 30.6°F-0.8°C 28.2°F-2.1°C 91% Calm Calm 0.3 mph0.5 kmh 29.91 in1012.9 mb 0.00 in0.0 mm 0.00 in/hr0.0 mm/hr 0.00 in0.0 mm
07:20 AM 30.7°F-0.7°C 28.4°F-2.0°C 91% Calm Calm 0.3 mph0.5 kmh 29.91 in1012.9 mb 0.00 in0.0 mm 0.00 in/hr0.0 mm/hr 0.00 in0.0 mm
07:15 AM 30.7°F-0.7°C 28.4°F-2.0°C 91% Calm Calm 0.3 mph0.5 kmh 29.91 in1012.9 mb 0.00 in0.0 mm 0.00 in/hr0.0 mm/hr 0.00 in0.0 mm
07:09 AM 30.7°F-0.7°C 28.1°F-2.2°C 90% 0.3 mph 0.5 kmh 0.3 mph0.5 kmh 29.91 in1012.9 mb 0.00 in0.0 mm 0.00 in/hr0.0 mm/hr 0.00 in0.0 mm
07:05 AM 30.9°F-0.6°C 28.3°F-2.1°C 90% 0.3 mph 0.5 kmh 0.7 mph1.1 kmh 29.90 in1012.5 mb 0.00 in0.0 mm 0.00 in/hr0.0 mm/hr 0.00 in0.0 mm
07:00 AM 31.0°F-0.6°C 28.7°F-1.8°C 91% 0.3 mph 0.5 kmh 0.7 mph1.1 kmh 29.90 in1012.5 mb 0.00 in0.0 mm 0.00 in/hr0.0 mm/hr 0.00 in0.0 mm
06:55 AM 31.0°F-0.6°C 28.4°F-2.0°C 90% 0.3 mph 0.5 kmh 0.7 mph1.1 kmh 29.90 in1012.5 mb 0.00 in0.0 mm 0.00 in/hr0.0 mm/hr 0.00 in0.0 mm
06:49 AM 31.0°F-0.6°C 28.4°F-2.0°C 90% 0.3 mph N0.5 kmh N 0.7 mph1.1 kmh 29.90 in1012.5 mb 0.00 in0.0 mm 0.00 in/hr0.0 mm/hr 0.00 in0.0 mm
06:45 AM 30.9°F-0.6°C 28.3°F-2.1°C 90% 0.3 mph NNE0.5 kmh NNE 0.7 mph1.1 kmh 29.90 in1012.5 mb 0.00 in0.0 mm 0.00 in/hr0.0 mm/hr 0.00 in0.0 mm
06:40 AM 30.9°F-0.6°C 28.3°F-2.1°C 90% 0.3 mph 0.5 kmh 1.9 mph3.1 kmh 29.89 in1012.2 mb 0.00 in0.0 mm 0.00 in/hr0.0 mm/hr 0.00 in0.0 mm
06:34 AM 30.9°F-0.6°C 28.3°F-2.1°C 90% 0.3 mph NNE0.5 kmh NNE 1.9 mph3.1 kmh 29.89 in1012.2 mb 0.00 in0.0 mm 0.00 in/hr0.0 mm/hr 0.00 in0.0 mm
06:30 AM 30.7°F-0.7°C 28.1°F-2.2°C 90% 0.6 mph NE1.0 kmh NE 1.6 mph2.6 kmh 29.89 in1012.2 mb 0.00 in0.0 mm 0.00 in/hr0.0 mm/hr 0.00 in0.0 mm
06:25 AM 30.7°F-0.7°C 28.1°F-2.2°C 90% 0.7 mph NE1.1 kmh NE 1.6 mph2.6 kmh 29.89 in1012.2 mb 0.00 in0.0 mm 0.00 in/hr0.0 mm/hr 0.00 in0.0 mm
06:19 AM 30.4°F-0.9°C 27.7°F-2.4°C 90% 0.5 mph NNE0.8 kmh NNE 0.7 mph1.1 kmh 29.89 in1012.2 mb 0.00 in0.0 mm 0.00 in/hr0.0 mm/hr 0.00 in0.0 mm
06:14 AM 30.1°F-1.1°C 27.4°F-2.6°C 90% 0.3 mph NNE0.5 kmh NNE 0.3 mph0.5 kmh 29.89 in1012.2 mb 0.00 in0.0 mm 0.00 in/hr0.0 mm/hr 0.00 in0.0 mm
06:09 AM 30.1°F-1.1°C 27.4°F-2.6°C 90% Calm Calm -- 29.89 in1012.2 mb 0.00 in0.0 mm 0.00 in/hr0.0 mm/hr 0.00 in0.0 mm
06:04 AM 30.2°F-1.0°C 27.5°F-2.5°C 90% Calm Calm 0.3 mph0.5 kmh 29.89 in1012.2 mb 0.00 in0.0 mm 0.00 in/hr0.0 mm/hr 0.00 in0.0 mm
06:00 AM 30.2°F-1.0°C 27.5°F-2.5°C 90% 0.3 mph NNW0.5 kmh NNW 0.3 mph0.5 kmh 29.89 in1012.2 mb 0.00 in0.0 mm 0.00 in/hr0.0 mm/hr 0.00 in0.0 mm
05:54 AM 30.4°F-0.9°C 27.7°F-2.4°C 90% 0.3 mph NNW0.5 kmh NNW 0.3 mph0.5 kmh 29.89 in1012.2 mb 0.00 in0.0 mm 0.00 in/hr0.0 mm/hr 0.00 in0.0 mm
05:49 AM 30.4°F-0.9°C 27.7°F-2.4°C 90% Calm Calm 0.3 mph0.5 kmh 29.89 in1012.2 mb 0.00 in0.0 mm 0.00 in/hr0.0 mm/hr 0.00 in0.0 mm
05:44 AM 30.4°F-0.9°C 27.7°F-2.4°C 90% 0.3 mph N0.5 kmh N 0.3 mph0.5 kmh 29.89 in1012.2 mb 0.00 in0.0 mm 0.00 in/hr0.0 mm/hr 0.00 in0.0 mm
05:39 AM 30.4°F-0.9°C 27.7°F-2.4°C 90% Calm Calm -- 29.89 in1012.2 mb 0.00 in0.0 mm 0.00 in/hr0.0 mm/hr 0.00 in0.0 mm
05:34 AM 30.4°F-0.9°C 27.7°F-2.4°C 90% Calm Calm -- 29.89 in1012.2 mb 0.00 in0.0 mm 0.00 in/hr0.0 mm/hr 0.00 in0.0 mm
05:29 AM 30.4°F-0.9°C 27.7°F-2.4°C 90% Calm Calm -- 29.89 in1012.2 mb 0.00 in0.0 mm 0.00 in/hr0.0 mm/hr 0.00 in0.0 mm
05:24 AM 30.7°F-0.7°C 28.1°F-2.2°C 90% Calm Calm -- 29.89 in1012.2 mb 0.00 in0.0 mm 0.00 in/hr0.0 mm/hr 0.00 in0.0 mm
05:19 AM 30.9°F-0.6°C 28.3°F-2.1°C 90% Calm Calm 0.3 mph0.5 kmh 29.88 in1011.9 mb 0.00 in0.0 mm 0.00 in/hr0.0 mm/hr 0.00 in0.0 mm
05:14 AM 31.0°F-0.6°C 28.4°F-2.0°C 90% Calm Calm 0.3 mph0.5 kmh 29.88 in1011.9 mb 0.00 in0.0 mm 0.00 in/hr0.0 mm/hr 0.00 in0.0 mm
05:09 AM 31.2°F-0.4°C 28.9°F-1.7°C 91% 0.3 mph NNW0.5 kmh NNW 0.3 mph0.5 kmh 29.88 in1011.9 mb 0.00 in0.0 mm 0.00 in/hr0.0 mm/hr 0.00 in0.0 mm
05:04 AM 31.2°F-0.4°C 28.9°F-1.7°C 91% Calm Calm 0.3 mph0.5 kmh 29.88 in1011.9 mb 0.00 in0.0 mm 0.00 in/hr0.0 mm/hr 0.00 in0.0 mm
04:59 AM 31.0°F-0.6°C 28.1°F-2.2°C 89% Calm Calm 0.3 mph0.5 kmh 29.88 in1011.9 mb 0.00 in0.0 mm 0.00 in/hr0.0 mm/hr 0.00 in0.0 mm
04:54 AM 31.0°F-0.6°C 28.1°F-2.2°C 89% 0.3 mph 0.5 kmh 0.3 mph0.5 kmh 29.88 in1011.9 mb 0.00 in0.0 mm 0.00 in/hr0.0 mm/hr 0.00 in0.0 mm
04:49 AM 31.0°F-0.6°C 28.1°F-2.2°C 89% 0.3 mph NNW0.5 kmh NNW 0.3 mph0.5 kmh 29.88 in1011.9 mb 0.00 in0.0 mm 0.00 in/hr0.0 mm/hr 0.00 in0.0 mm
04:44 AM 30.9°F-0.6°C 28.0°F-2.2°C 89% 0.3 mph 0.5 kmh 0.3 mph0.5 kmh 29.87 in1011.5 mb 0.00 in0.0 mm 0.00 in/hr0.0 mm/hr 0.00 in0.0 mm
04:39 AM 30.9°F-0.6°C 28.0°F-2.2°C 89% Calm Calm -- 29.87 in1011.5 mb 0.00 in0.0 mm 0.00 in/hr0.0 mm/hr 0.00 in0.0 mm
04:34 AM 31.0°F-0.6°C 28.4°F-2.0°C 90% Calm Calm -- 29.87 in1011.5 mb 0.00 in0.0 mm 0.00 in/hr0.0 mm/hr 0.00 in0.0 mm
04:29 AM 31.2°F-0.4°C 28.6°F-1.9°C 90% Calm Calm 0.3 mph0.5 kmh 29.87 in1011.5 mb 0.00 in0.0 mm 0.00 in/hr0.0 mm/hr 0.00 in0.0 mm
04:24 AM 31.2°F-0.4°C 28.6°F-1.9°C 90% Calm Calm 0.3 mph0.5 kmh 29.87 in1011.5 mb 0.00 in0.0 mm 0.00 in/hr0.0 mm/hr 0.00 in0.0 mm
04:19 AM 31.0°F-0.6°C 28.4°F-2.0°C 90% 0.3 mph 0.5 kmh 0.3 mph0.5 kmh 29.87 in1011.5 mb 0.00 in0.0 mm 0.00 in/hr0.0 mm/hr 0.00 in0.0 mm
04:14 AM 31.0°F-0.6°C 28.4°F-2.0°C 90% Calm Calm -- 29.87 in1011.5 mb 0.00 in0.0 mm 0.00 in/hr0.0 mm/hr 0.00 in0.0 mm
04:09 AM 31.0°F-0.6°C 28.4°F-2.0°C 90% Calm Calm -- 29.87 in1011.5 mb 0.00 in0.0 mm 0.00 in/hr0.0 mm/hr 0.00 in0.0 mm
04:04 AM 31.0°F-0.6°C 28.4°F-2.0°C 90% Calm Calm -- 29.87 in1011.5 mb 0.00 in0.0 mm 0.00 in/hr0.0 mm/hr 0.00 in0.0 mm
03:59 AM 31.2°F-0.4°C 28.6°F-1.9°C 90% Calm Calm 0.3 mph0.5 kmh 29.87 in1011.5 mb 0.00 in0.0 mm 0.00 in/hr0.0 mm/hr 0.00 in0.0 mm
03:54 AM 31.2°F-0.4°C 28.6°F-1.9°C 90% Calm Calm 0.3 mph0.5 kmh 29.87 in1011.5 mb 0.00 in0.0 mm 0.00 in/hr0.0 mm/hr 0.00 in0.0 mm
03:49 AM 31.4°F-0.3°C 28.8°F-1.8°C 90% Calm Calm 0.3 mph0.5 kmh 29.87 in1011.5 mb 0.00 in0.0 mm 0.00 in/hr0.0 mm/hr 0.00 in0.0 mm
03:44 AM 31.6°F-0.2°C 29.0°F-1.7°C 90% Calm Calm 0.3 mph0.5 kmh 29.86 in1011.2 mb 0.00 in0.0 mm 0.00 in/hr0.0 mm/hr 0.00 in0.0 mm
03:39 AM 31.8°F-0.1°C 28.9°F-1.7°C 89% Calm Calm -- 29.86 in1011.2 mb 0.00 in0.0 mm 0.00 in/hr0.0 mm/hr 0.00 in0.0 mm
03:34 AM 31.8°F-0.1°C 28.9°F-1.7°C 89% Calm Calm -- 29.86 in1011.2 mb 0.00 in0.0 mm 0.00 in/hr0.0 mm/hr 0.00 in0.0 mm
03:29 AM 32.1°F0.1°C 29.2°F-1.6°C 89% Calm Calm 0.7 mph1.1 kmh 29.86 in1011.2 mb 0.00 in0.0 mm 0.00 in/hr0.0 mm/hr 0.00 in0.0 mm
03:24 AM 32.3°F0.2°C 29.4°F-1.4°C 89% Calm Calm 0.7 mph1.1 kmh 29.86 in1011.2 mb 0.00 in0.0 mm 0.00 in/hr0.0 mm/hr 0.00 in0.0 mm
03:19 AM 32.3°F0.2°C 29.4°F-1.4°C 89% 0.3 mph NNE0.5 kmh NNE 0.3 mph0.5 kmh 29.86 in1011.2 mb 0.00 in0.0 mm 0.00 in/hr0.0 mm/hr 0.00 in0.0 mm
03:14 AM 32.3°F0.2°C 29.4°F-1.4°C 89% 0.3 mph NE0.5 kmh NE 0.3 mph0.5 kmh 29.86 in1011.2 mb 0.00 in0.0 mm 0.00 in/hr0.0 mm/hr 0.00 in0.0 mm
03:09 AM 32.3°F0.2°C 29.7°F-1.3°C 90% 0.3 mph 0.5 kmh 0.3 mph0.5 kmh 29.86 in1011.2 mb 0.00 in0.0 mm 0.00 in/hr0.0 mm/hr 0.00 in0.0 mm
03:04 AM 32.1°F0.1°C 29.5°F-1.4°C 90% 0.3 mph NNE0.5 kmh NNE 0.3 mph0.5 kmh 29.86 in1011.2 mb 0.00 in0.0 mm 0.00 in/hr0.0 mm/hr 0.00 in0.0 mm
02:59 AM 31.8°F-0.1°C 28.9°F-1.7°C 89% 0.3 mph 0.5 kmh 0.3 mph0.5 kmh 29.86 in1011.2 mb 0.00 in0.0 mm 0.00 in/hr0.0 mm/hr 0.00 in0.0 mm
02:54 AM 31.8°F-0.1°C 28.9°F-1.7°C 89% 0.3 mph 0.5 kmh 0.3 mph0.5 kmh 29.86 in1011.2 mb 0.00 in0.0 mm 0.00 in/hr0.0 mm/hr 0.00 in0.0 mm
02:49 AM 31.8°F-0.1°C 28.9°F-1.7°C 89% Calm Calm 0.3 mph0.5 kmh 29.87 in1011.5 mb 0.00 in0.0 mm 0.00 in/hr0.0 mm/hr 0.00 in0.0 mm
02:44 AM 31.8°F-0.1°C 28.9°F-1.7°C 89% Calm Calm 0.3 mph0.5 kmh 29.87 in1011.5 mb 0.00 in0.0 mm 0.00 in/hr0.0 mm/hr 0.00 in0.0 mm
02:39 AM 31.8°F-0.1°C 28.9°F-1.7°C 89% 0.3 mph NW0.5 kmh NW 0.3 mph0.5 kmh 29.87 in1011.5 mb 0.00 in0.0 mm 0.00 in/hr0.0 mm/hr 0.00 in0.0 mm
02:34 AM 31.8°F-0.1°C 28.9°F-1.7°C 89% Calm Calm 0.3 mph0.5 kmh 29.87 in1011.5 mb 0.00 in0.0 mm 0.00 in/hr0.0 mm/hr 0.00 in0.0 mm
02:29 AM 31.6°F-0.2°C 28.7°F-1.8°C 89% 0.3 mph 0.5 kmh 0.3 mph0.5 kmh 29.86 in1011.2 mb 0.00 in0.0 mm 0.00 in/hr0.0 mm/hr 0.00 in0.0 mm
02:24 AM 31.4°F-0.3°C 28.5°F-1.9°C 89% 0.3 mph NNW0.5 kmh NNW 0.3 mph0.5 kmh 29.86 in1011.2 mb 0.00 in0.0 mm 0.00 in/hr0.0 mm/hr 0.00 in0.0 mm
02:19 AM 31.4°F-0.3°C 28.5°F-1.9°C 89% Calm Calm 0.3 mph0.5 kmh 29.86 in1011.2 mb 0.00 in0.0 mm 0.00 in/hr0.0 mm/hr 0.00 in0.0 mm
02:14 AM 31.2°F-0.4°C 28.3°F-2.1°C 89% Calm Calm 0.3 mph0.5 kmh 29.86 in1011.2 mb 0.00 in0.0 mm 0.00 in/hr0.0 mm/hr 0.00 in0.0 mm
02:09 AM 31.4°F-0.3°C 28.5°F-1.9°C 89% Calm Calm 0.3 mph0.5 kmh 29.86 in1011.2 mb 0.00 in0.0 mm 0.00 in/hr0.0 mm/hr 0.00 in0.0 mm
02:04 AM 31.4°F-0.3°C 28.5°F-1.9°C 89% Calm Calm -- 29.86 in1011.2 mb 0.00 in0.0 mm 0.00 in/hr0.0 mm/hr 0.00 in0.0 mm
01:59 AM 31.2°F-0.4°C 28.3°F-2.1°C 89% Calm Calm 0.3 mph0.5 kmh 29.86 in1011.2 mb 0.00 in0.0 mm 0.00 in/hr0.0 mm/hr 0.00 in0.0 mm
01:54 AM 31.2°F-0.4°C 28.3°F-2.1°C 89% Calm Calm 0.3 mph0.5 kmh 29.86 in1011.2 mb 0.00 in0.0 mm 0.00 in/hr0.0 mm/hr 0.00 in0.0 mm
01:49 AM 31.0°F-0.6°C 28.1°F-2.2°C 89% Calm Calm -- 29.85 in1010.8 mb 0.00 in0.0 mm 0.00 in/hr0.0 mm/hr 0.00 in0.0 mm
01:44 AM 31.0°F-0.6°C 28.1°F-2.2°C 89% Calm Calm -- 29.85 in1010.8 mb 0.00 in0.0 mm 0.00 in/hr0.0 mm/hr 0.00 in0.0 mm
01:39 AM 31.2°F-0.4°C 28.1°F-2.2°C 88% Calm Calm -- 29.85 in1010.8 mb 0.00 in0.0 mm 0.00 in/hr0.0 mm/hr 0.00 in0.0 mm
01:34 AM 31.2°F-0.4°C 28.1°F-2.2°C 88% Calm Calm -- 29.85 in1010.8 mb 0.00 in0.0 mm 0.00 in/hr0.0 mm/hr 0.00 in0.0 mm
01:29 AM 31.2°F-0.4°C 28.1°F-2.2°C 88% Calm Calm -- 29.85 in1010.8 mb 0.00 in0.0 mm 0.00 in/hr0.0 mm/hr 0.00 in0.0 mm
01:24 AM 31.4°F-0.3°C 28.2°F-2.1°C 88% Calm Calm -- 29.85 in1010.8 mb 0.00 in0.0 mm 0.00 in/hr0.0 mm/hr 0.00 in0.0 mm
01:19 AM 31.6°F-0.2°C 28.4°F-2.0°C 88% Calm Calm -- 29.85 in1010.8 mb 0.00 in0.0 mm 0.00 in/hr0.0 mm/hr 0.00 in0.0 mm
01:14 AM 31.8°F-0.1°C 28.6°F-1.9°C 88% Calm Calm -- 29.85 in1010.8 mb 0.00 in0.0 mm 0.00 in/hr0.0 mm/hr 0.00 in0.0 mm
01:09 AM 31.8°F-0.1°C 28.6°F-1.9°C 88% Calm Calm -- 29.85 in1010.8 mb 0.00 in0.0 mm 0.00 in/hr0.0 mm/hr 0.00 in0.0 mm
01:04 AM 31.9°F-0.1°C 28.7°F-1.8°C 88% Calm Calm -- 29.85 in1010.8 mb 0.00 in0.0 mm 0.00 in/hr0.0 mm/hr 0.00 in0.0 mm
12:59 AM 31.9°F-0.1°C 28.7°F-1.8°C 88% Calm Calm -- 29.85 in1010.8 mb 0.00 in0.0 mm 0.00 in/hr0.0 mm/hr 0.00 in0.0 mm
12:54 AM 32.1°F0.1°C 28.9°F-1.7°C 88% Calm Calm -- 29.85 in1010.8 mb 0.00 in0.0 mm 0.00 in/hr0.0 mm/hr 0.00 in0.0 mm
12:49 AM 32.3°F0.2°C 28.8°F-1.8°C 87% Calm Calm -- 29.85 in1010.8 mb 0.00 in0.0 mm 0.00 in/hr0.0 mm/hr 0.00 in0.0 mm
12:44 AM 32.5°F0.3°C 29.0°F-1.7°C 87% Calm Calm -- 29.84 in1010.5 mb 0.00 in0.0 mm 0.00 in/hr0.0 mm/hr 0.00 in0.0 mm
12:39 AM 32.7°F0.4°C 29.2°F-1.6°C 87% Calm Calm -- 29.85 in1010.8 mb 0.00 in0.0 mm 0.00 in/hr0.0 mm/hr 0.00 in0.0 mm
12:34 AM 32.7°F0.4°C 29.2°F-1.6°C 87% Calm Calm -- 29.84 in1010.5 mb 0.00 in0.0 mm 0.00 in/hr0.0 mm/hr 0.00 in0.0 mm
12:29 AM 32.8°F0.4°C 29.3°F-1.5°C 87% Calm Calm -- 29.84 in1010.5 mb 0.00 in0.0 mm 0.00 in/hr0.0 mm/hr 0.00 in0.0 mm
12:24 AM 33.2°F0.7°C 29.7°F-1.3°C 87% Calm Calm -- 29.84 in1010.5 mb 0.00 in0.0 mm 0.00 in/hr0.0 mm/hr 0.00 in0.0 mm
12:19 AM 33.2°F0.7°C 29.4°F-1.4°C 86% Calm Calm -- 29.84 in1010.5 mb 0.00 in0.0 mm 0.00 in/hr0.0 mm/hr 0.00 in0.0 mm
12:14 AM 33.6°F0.9°C 29.8°F-1.2°C 86% Calm Calm -- 29.84 in1010.5 mb 0.00 in0.0 mm 0.00 in/hr0.0 mm/hr 0.00 in0.0 mm
12:09 AM 33.6°F0.9°C 29.8°F-1.2°C 86% Calm Calm -- 29.85 in1010.8 mb 0.00 in0.0 mm 0.00 in/hr0.0 mm/hr 0.00 in0.0 mm
12:04 AM 33.6°F0.9°C 29.8°F-1.2°C 86% Calm Calm -- 29.85 in1010.8 mb 0.00 in0.0 mm 0.00 in/hr0.0 mm/hr 0.00 in0.0 mm